Time;durP1;ratioP1;P1;durP2;ratioP2;P2;SDS_P1;SDS_P2;PMS_P1;PMS_P2;Temp;Humidity;BMP_temperature;BMP_pressure;BME280_temperature;BME280_humidity;BME280_pressure;Samples;Min_cycle;Max_cycle;Signal;HPM_P1;HPM_P2
2023/09/16 00:01:01;;;;;;;4.60;3.35;;;13.80;99.90;;;;;;5007230;28;20437;-84
2023/09/16 00:03:26;;;;;;;3.85;3.03;;;13.90;99.90;;;;;;5025804;28;20065;-80
2023/09/16 00:05:52;;;;;;;3.88;2.80;;;13.90;99.90;;;;;;5014548;28;20031;-81
2023/09/16 00:08:17;;;;;;;5.70;2.97;;;13.90;99.90;;;;;;5022515;28;20021;-79
2023/09/16 00:10:43;;;;;;;4.68;2.72;;;13.90;99.90;;;;;;5016501;28;20032;-81
2023/09/16 00:13:08;;;;;;;3.58;2.63;;;13.90;99.90;;;;;;5008235;28;20026;-80
2023/09/16 00:15:34;;;;;;;3.78;2.65;;;13.90;99.90;;;;;;5005609;28;20034;-85
2023/09/16 00:18:00;;;;;;;4.18;2.92;;;13.90;99.90;;;;;;5006562;28;20033;-81
2023/09/16 00:20:28;;;;;;;3.17;2.88;;;13.90;99.90;;;;;;5002550;28;20019;-81
2023/09/16 00:22:54;;;;;;;3.83;3.10;;;13.90;99.90;;;;;;5015708;28;20026;-81
2023/09/16 00:25:19;;;;;;;5.53;3.25;;;13.90;99.90;;;;;;5010273;28;20081;-83
2023/09/16 00:27:45;;;;;;;3.38;2.72;;;13.90;99.90;;;;;;5001087;28;20084;-81
2023/09/16 00:30:11;;;;;;;3.22;2.83;;;13.90;99.90;;;;;;5008978;28;20081;-82
2023/09/16 00:32:36;;;;;;;3.63;3.15;;;13.90;99.90;;;;;;5007269;28;20025;-82
2023/09/16 00:35:03;;;;;;;3.58;3.05;;;13.90;99.90;;;;;;5005354;28;20026;-82
2023/09/16 00:37:29;;;;;;;4.13;3.08;;;13.90;99.90;;;;;;5005812;28;20026;-81
2023/09/16 00:39:55;;;;;;;3.25;2.75;;;13.80;99.90;;;;;;5008171;28;20022;-83
2023/09/16 00:42:21;;;;;;;3.78;3.40;;;13.90;99.90;;;;;;5007568;28;20026;-84
2023/09/16 00:44:46;;;;;;;4.60;3.65;;;13.80;99.90;;;;;;5002655;28;20471;-81
2023/09/16 00:47:12;;;;;;;5.70;3.58;;;13.80;99.90;;;;;;5001606;28;20026;-81
2023/09/16 00:49:38;;;;;;;4.63;3.25;;;13.80;99.90;;;;;;5009936;28;20030;-81
2023/09/16 00:52:04;;;;;;;3.15;2.85;;;13.80;99.90;;;;;;5011567;28;20205;-81
2023/09/16 00:54:30;;;;;;;4.25;3.20;;;13.90;99.90;;;;;;5009842;28;20069;-81
2023/09/16 00:56:57;;;;;;;5.50;3.05;;;13.80;99.90;;;;;;5006575;28;20033;-80
2023/09/16 00:59:25;;;;;;;4.05;3.20;;;13.80;99.90;;;;;;5006724;28;20598;-81
2023/09/16 01:01:52;;;;;;;4.55;3.47;;;13.80;99.90;;;;;;5011500;28;20052;-81
2023/09/16 01:04:20;;;;;;;4.88;3.38;;;13.80;99.90;;;;;;5009808;28;20033;-81
2023/09/16 01:06:47;;;;;;;3.45;3.10;;;13.80;99.90;;;;;;5008517;28;20098;-81
2023/09/16 01:09:15;;;;;;;4.32;3.10;;;13.80;99.90;;;;;;5012222;28;20022;-80
2023/09/16 01:11:41;;;;;;;5.70;3.47;;;13.80;99.90;;;;;;5020445;28;20022;-80
2023/09/16 01:14:11;;;;;;;3.65;3.28;;;13.80;99.90;;;;;;5013202;28;20019;-80
2023/09/16 01:16:57;;;;;;;4.75;3.08;;;13.80;99.90;;;;;;5010623;28;20021;-81
2023/09/16 01:19:22;;;;;;;;;;;13.80;99.90;;;;;;5009787;28;20029;-81
2023/09/16 01:21:49;;;;;;;3.40;2.97;;;13.80;99.90;;;;;;5009180;28;19910;-81
2023/09/16 01:24:20;;;;;;;3.55;3.25;;;13.80;99.90;;;;;;5010223;28;20022;-81
2023/09/16 01:26:47;;;;;;;5.40;3.35;;;13.70;99.90;;;;;;5026654;28;20019;-80
2023/09/16 01:29:14;;;;;;;4.22;3.42;;;13.70;99.90;;;;;;5001820;28;20023;-81
2023/09/16 01:31:41;;;;;;;6.22;3.50;;;13.70;99.90;;;;;;5016714;28;20023;-83
2023/09/16 01:34:35;;;;;;;4.45;3.80;;;13.70;99.90;;;;;;5011336;28;20037;-81
2023/09/16 01:37:02;;;;;;;4.47;3.53;;;13.70;99.90;;;;;;5004811;28;20022;-83
2023/09/16 01:39:31;;;;;;;4.22;3.63;;;13.70;99.90;;;;;;5011967;28;20133;-80
2023/09/16 01:41:59;;;;;;;4.25;3.58;;;13.70;99.90;;;;;;5020079;28;20123;-80
2023/09/16 01:44:24;;;;;;;5.32;3.95;;;13.60;99.90;;;;;;5020313;28;20108;-83
2023/09/16 01:46:54;;;;;;;4.25;3.30;;;13.70;99.90;;;;;;5016447;28;20050;-85
2023/09/16 01:49:20;;;;;;;4.10;3.75;;;13.60;99.90;;;;;;5015267;28;20023;-81
2023/09/16 01:51:45;;;;;;;4.05;3.72;;;13.70;99.90;;;;;;4998804;28;20086;-80
2023/09/16 01:54:11;;;;;;;4.63;3.90;;;13.60;99.90;;;;;;5003301;28;20125;-81
2023/09/16 01:56:36;;;;;;;4.28;3.85;;;13.60;99.90;;;;;;5016537;28;20120;-82
2023/09/16 01:59:03;;;;;;;4.72;3.83;;;13.60;99.90;;;;;;5017865;28;20021;-83
2023/09/16 02:01:29;;;;;;;4.20;3.25;;;13.60;99.90;;;;;;5028595;28;20022;-82
2023/09/16 02:03:55;;;;;;;4.35;3.67;;;13.60;99.90;;;;;;5020770;28;20022;-83
2023/09/16 02:06:21;;;;;;;4.95;3.45;;;13.60;99.90;;;;;;5014918;28;20474;-85
2023/09/16 02:08:46;;;;;;;3.97;3.58;;;13.60;99.90;;;;;;5004125;28;20030;-83
2023/09/16 02:11:12;;;;;;;4.03;3.22;;;13.60;99.90;;;;;;5007622;28;20160;-81
2023/09/16 02:13:38;;;;;;;5.75;4.10;;;13.60;99.90;;;;;;5017490;28;20052;-82
2023/09/16 02:16:03;;;;;;;4.07;3.67;;;13.60;99.90;;;;;;5014472;28;20533;-80
2023/09/16 02:18:29;;;;;;;4.65;3.95;;;13.50;99.90;;;;;;5021534;28;20097;-85
2023/09/16 02:20:55;;;;;;;4.32;3.72;;;13.50;99.90;;;;;;5013899;28;20424;-81
2023/09/16 02:23:22;;;;;;;6.18;4.35;;;13.50;99.90;;;;;;5010678;28;20108;-82
2023/09/16 02:25:47;;;;;;;5.25;3.88;;;13.50;99.90;;;;;;5016171;28;20099;-81
2023/09/16 02:28:13;;;;;;;4.75;3.53;;;13.50;99.90;;;;;;5014270;28;20045;-80
2023/09/16 02:30:39;;;;;;;5.25;4.30;;;13.50;99.90;;;;;;5008764;28;20022;-82
2023/09/16 02:33:04;;;;;;;4.50;3.83;;;13.50;99.90;;;;;;5005813;28;20026;-81
2023/09/16 02:35:30;;;;;;;4.32;3.80;;;13.50;99.90;;;;;;5007313;28;20034;-81
2023/09/16 02:37:57;;;;;;;5.65;4.50;;;13.50;99.90;;;;;;5012667;28;20062;-83
2023/09/16 02:40:22;;;;;;;4.63;3.92;;;13.50;99.90;;;;;;5014339;28;20026;-81
2023/09/16 02:42:48;;;;;;;5.85;4.63;;;13.50;99.90;;;;;;5014009;28;20037;-83
2023/09/16 02:45:13;;;;;;;4.35;3.95;;;13.50;99.90;;;;;;5012150;28;20018;-81
2023/09/16 02:47:39;;;;;;;4.63;4.20;;;13.50;99.90;;;;;;5019026;28;20029;-80
2023/09/16 02:50:05;;;;;;;4.47;4.07;;;13.40;99.90;;;;;;5008483;28;20019;-83
2023/09/16 02:52:31;;;;;;;4.70;4.30;;;13.40;99.90;;;;;;5013993;28;20106;-81
2023/09/16 02:54:56;;;;;;;5.70;5.03;;;13.40;99.90;;;;;;5010881;28;20054;-83
2023/09/16 02:57:22;;;;;;;4.20;3.80;;;13.40;99.90;;;;;;5012598;28;20014;-83
2023/09/16 02:59:47;;;;;;;5.15;4.65;;;13.40;99.90;;;;;;5016534;28;20048;-81
2023/09/16 03:02:13;;;;;;;5.35;4.07;;;13.30;99.90;;;;;;5002857;28;20713;-82
2023/09/16 03:04:38;;;;;;;6.22;4.45;;;13.30;99.90;;;;;;5014055;28;20022;-82
2023/09/16 03:07:05;;;;;;;4.97;4.47;;;13.40;99.90;;;;;;5019528;28;20502;-82
2023/09/16 03:09:30;;;;;;;5.63;5.05;;;13.30;99.90;;;;;;5006281;28;20090;-84
2023/09/16 03:11:56;;;;;;;5.57;4.22;;;13.30;99.90;;;;;;5019559;28;20018;-82
2023/09/16 03:14:22;;;;;;;5.45;4.13;;;13.30;99.90;;;;;;5014112;28;20389;-83
2023/09/16 03:16:48;;;;;;;4.47;4.07;;;13.30;99.90;;;;;;5016534;28;20033;-84
2023/09/16 03:19:16;;;;;;;6.28;4.63;;;13.30;99.90;;;;;;5017300;28;20025;-84
2023/09/16 03:21:41;;;;;;;5.60;3.80;;;13.20;99.90;;;;;;5017689;28;20041;-83
2023/09/16 03:24:07;;;;;;;5.70;5.07;;;13.20;99.90;;;;;;5010121;28;20083;-84
2023/09/16 03:26:32;;;;;;;5.88;4.20;;;13.20;99.90;;;;;;5000700;28;20057;-83
2023/09/16 03:28:58;;;;;;;4.72;4.32;;;13.20;99.90;;;;;;4999206;28;20053;-84
2023/09/16 03:31:24;;;;;;;4.68;4.28;;;13.20;99.90;;;;;;4998641;28;20034;-80
2023/09/16 03:33:49;;;;;;;4.57;4.18;;;13.20;99.90;;;;;;5008937;28;20097;-81
2023/09/16 03:36:15;;;;;;;4.45;4.05;;;13.20;99.90;;;;;;5015585;28;20022;-83
2023/09/16 03:38:49;;;;;;;5.60;4.47;;;13.20;99.90;;;;;;5006166;28;20037;-82
2023/09/16 03:41:15;;;;;;;5.22;4.72;;;13.20;99.90;;;;;;5008505;28;20595;-82
2023/09/16 03:43:40;;;;;;;6.18;4.47;;;13.20;99.90;;;;;;5005888;28;20054;-82
2023/09/16 03:46:06;;;;;;;4.35;3.95;;;13.20;99.90;;;;;;5016363;28;20465;-80
2023/09/16 03:48:32;;;;;;;4.72;4.20;;;13.10;99.90;;;;;;5014334;28;20683;-87
2023/09/16 03:50:57;;;;;;;5.70;4.70;;;13.20;99.90;;;;;;5012316;28;20026;-81
2023/09/16 03:53:25;;;;;;;4.60;4.20;;;13.20;99.90;;;;;;4993358;28;20104;-83
2023/09/16 03:55:51;;;;;;;6.78;5.35;;;13.10;99.90;;;;;;5005171;28;20027;-80
2023/09/16 03:58:17;;;;;;;6.55;5.00;;;13.20;99.90;;;;;;5015337;28;20025;-81
2023/09/16 04:00:42;;;;;;;5.13;4.57;;;13.20;99.90;;;;;;5012250;28;20037;-80
2023/09/16 04:03:08;;;;;;;4.38;3.97;;;13.20;99.90;;;;;;5010305;28;20025;-84
2023/09/16 04:05:34;;;;;;;6.90;5.05;;;13.10;99.90;;;;;;5008160;28;20379;-87
2023/09/16 04:07:59;;;;;;;7.47;4.43;;;13.10;99.90;;;;;;5005942;28;20028;-82
2023/09/16 04:10:25;;;;;;;5.15;4.63;;;13.10;99.90;;;;;;5003676;28;20052;-84
2023/09/16 04:12:50;;;;;;;5.43;4.93;;;13.10;99.90;;;;;;4998248;28;20026;-81
2023/09/16 04:15:16;;;;;;;5.18;4.15;;;13.10;99.90;;;;;;5013434;28;20120;-80
2023/09/16 04:17:41;;;;;;;6.20;4.85;;;13.10;99.90;;;;;;5001459;28;20034;-81
2023/09/16 04:20:07;;;;;;;7.35;4.65;;;13.10;99.90;;;;;;5012518;28;20496;-81
2023/09/16 04:22:33;;;;;;;5.43;4.93;;;13.10;99.90;;;;;;5002905;28;20047;-81
2023/09/16 04:24:58;;;;;;;5.70;4.90;;;13.10;99.90;;;;;;5004335;28;20030;-82
2023/09/16 04:27:24;;;;;;;9.15;5.28;;;13.10;99.90;;;;;;5001851;28;20018;-81
2023/09/16 04:29:49;;;;;;;6.07;4.88;;;13.10;99.90;;;;;;4994315;28;20570;-83
2023/09/16 04:32:15;;;;;;;5.50;4.88;;;13.10;99.90;;;;;;5005920;28;20112;-84
2023/09/16 04:34:41;;;;;;;5.45;4.95;;;13.10;99.90;;;;;;4998810;28;20038;-82
2023/09/16 04:37:08;;;;;;;5.38;4.32;;;13.10;99.90;;;;;;5001100;28;20018;-83
2023/09/16 04:39:34;;;;;;;6.47;5.18;;;13.10;99.90;;;;;;5004804;28;20036;-84
2023/09/16 04:42:02;;;;;;;6.72;4.88;;;13.10;99.90;;;;;;5015016;28;20406;-82
2023/09/16 04:44:29;;;;;;;5.53;5.10;;;13.10;99.90;;;;;;5004729;28;20025;-82
2023/09/16 04:46:54;;;;;;;5.13;4.65;;;13.20;99.90;;;;;;5005272;28;20037;-81
2023/09/16 04:49:21;;;;;;;6.43;5.35;;;13.10;99.90;;;;;;5005116;28;20386;-81
2023/09/16 04:51:47;;;;;;;5.90;5.22;;;13.20;99.90;;;;;;5009228;28;20030;-81
2023/09/16 04:54:12;;;;;;;5.22;4.80;;;13.10;99.90;;;;;;5003505;28;20459;-84
2023/09/16 04:56:38;;;;;;;5.72;4.85;;;13.10;99.90;;;;;;5016575;28;20072;-84
2023/09/16 04:59:04;;;;;;;7.22;5.43;;;13.10;99.90;;;;;;5013948;28;20068;-81
2023/09/16 05:01:30;;;;;;;5.53;4.47;;;13.10;99.90;;;;;;5017757;28;20116;-85
2023/09/16 05:03:57;;;;;;;7.13;4.78;;;13.10;99.90;;;;;;5019123;28;20036;-81
2023/09/16 05:06:22;;;;;;;5.95;5.35;;;13.10;99.90;;;;;;5012992;28;20018;-84
2023/09/16 05:08:48;;;;;;;5.18;4.68;;;13.10;99.90;;;;;;5008943;28;20029;-82
2023/09/16 05:11:14;;;;;;;5.57;5.03;;;13.10;99.90;;;;;;5006568;28;20061;-83
2023/09/16 05:13:40;;;;;;;6.50;5.05;;;13.10;99.90;;;;;;5016944;28;20088;-83
2023/09/16 05:16:08;;;;;;;4.80;4.40;;;13.10;99.90;;;;;;5014851;28;20038;-81
2023/09/16 05:18:33;;;;;;;6.07;4.75;;;13.10;99.90;;;;;;5008716;28;20018;-83
2023/09/16 05:20:59;;;;;;;6.93;5.07;;;13.10;99.90;;;;;;5012983;28;20101;-82
2023/09/16 05:23:25;;;;;;;4.70;4.20;;;13.10;99.90;;;;;;5000461;28;20023;-81
2023/09/16 05:25:50;;;;;;;5.47;4.57;;;13.10;99.90;;;;;;5007203;28;20366;-81
2023/09/16 05:28:17;;;;;;;5.97;4.68;;;13.10;99.90;;;;;;4998299;28;20367;-82
2023/09/16 05:30:43;;;;;;;8.50;5.15;;;13.10;99.90;;;;;;5003348;28;20029;-81
2023/09/16 05:33:12;;;;;;;8.45;4.90;;;13.10;99.90;;;;;;5007462;28;20084;-81
2023/09/16 05:35:39;;;;;;;6.75;5.22;;;13.10;99.90;;;;;;5005221;28;20109;-82
2023/09/16 05:38:05;;;;;;;5.78;5.28;;;13.20;99.90;;;;;;5008065;28;20033;-82
2023/09/16 05:40:31;;;;;;;5.72;4.68;;;13.10;99.90;;;;;;5016672;28;20030;-83
2023/09/16 05:42:56;;;;;;;5.70;4.32;;;13.10;99.90;;;;;;5009690;28;20038;-86
2023/09/16 05:45:22;;;;;;;5.05;4.55;;;13.10;99.90;;;;;;4999754;28;20430;-83
2023/09/16 05:47:51;;;;;;;5.47;4.97;;;13.20;99.90;;;;;;5010978;28;20033;-84
2023/09/16 05:50:17;;;;;;;5.00;4.50;;;13.20;99.90;;;;;;5012080;28;20025;-82
2023/09/16 05:52:42;;;;;;;5.70;5.13;;;13.20;99.90;;;;;;5003631;28;20023;-82
2023/09/16 05:55:09;;;;;;;5.30;4.80;;;13.20;99.90;;;;;;5005862;28;20018;-82
2023/09/16 05:57:35;;;;;;;5.35;4.75;;;13.20;99.90;;;;;;4999145;28;20045;-84
2023/09/16 06:00:01;;;;;;;6.82;4.75;;;13.20;99.90;;;;;;5005439;28;20030;-84
2023/09/16 06:02:27;;;;;;;6.60;4.90;;;13.30;99.90;;;;;;5002857;28;20080;-82
2023/09/16 06:04:52;;;;;;;5.82;4.53;;;13.30;99.90;;;;;;5005729;28;20425;-83
2023/09/16 06:07:18;;;;;;;5.82;5.22;;;13.30;99.90;;;;;;5006813;28;20478;-81
2023/09/16 06:09:43;;;;;;;6.47;5.47;;;13.30;99.90;;;;;;5012009;28;20030;-84
2023/09/16 06:12:09;;;;;;;6.28;5.00;;;13.40;99.90;;;;;;5008996;28;20028;-83
2023/09/16 06:14:35;;;;;;;4.53;4.03;;;13.40;99.90;;;;;;5011124;28;20494;-82
2023/09/16 06:17:00;;;;;;;8.55;5.18;;;13.40;99.90;;;;;;5005757;28;20049;-80
2023/09/16 06:19:27;;;;;;;5.78;4.40;;;13.40;99.90;;;;;;5009476;28;20030;-82
2023/09/16 06:21:54;;;;;;;6.13;4.65;;;13.50;99.90;;;;;;5014095;28;20025;-81
2023/09/16 06:24:20;;;;;;;6.00;4.80;;;13.50;99.90;;;;;;5012648;28;20057;-82
2023/09/16 06:26:45;;;;;;;5.32;4.60;;;13.50;99.90;;;;;;5009929;28;20458;-81
2023/09/16 06:29:11;;;;;;;6.10;4.78;;;13.50;99.90;;;;;;5009260;28;20049;-80
2023/09/16 06:31:36;;;;;;;6.00;4.97;;;13.60;99.90;;;;;;5012125;28;20026;-82
2023/09/16 06:34:02;;;;;;;5.53;4.38;;;13.70;99.90;;;;;;5001703;28;20438;-84
2023/09/16 06:36:28;;;;;;;5.20;4.70;;;13.70;99.90;;;;;;5011254;28;20042;-83
2023/09/16 06:38:54;;;;;;;7.55;4.68;;;13.70;99.90;;;;;;5002583;28;20030;-80
2023/09/16 06:41:20;;;;;;;5.10;4.30;;;13.80;99.90;;;;;;5003407;28;20037;-82
2023/09/16 06:43:45;;;;;;;5.70;4.55;;;13.80;99.90;;;;;;5013659;28;20521;-81
2023/09/16 06:46:11;;;;;;;6.20;5.43;;;13.90;99.90;;;;;;4999656;28;20034;-81
2023/09/16 06:48:36;;;;;;;5.35;4.30;;;14.00;99.90;;;;;;5005095;28;20030;-82
2023/09/16 06:51:02;;;;;;;5.55;4.63;;;14.00;99.90;;;;;;5015694;28;20028;-81
2023/09/16 06:53:28;;;;;;;5.68;4.85;;;14.00;99.90;;;;;;5016705;28;20026;-82
2023/09/16 06:55:54;;;;;;;6.03;4.82;;;14.10;99.90;;;;;;5010697;28;20033;-83
2023/09/16 06:58:20;;;;;;;5.70;5.00;;;14.20;99.90;;;;;;5005858;28;20093;-82
2023/09/16 07:00:48;;;;;;;4.85;4.45;;;14.30;99.90;;;;;;5010844;28;20018;-81
2023/09/16 07:03:13;;;;;;;4.82;4.32;;;14.30;99.90;;;;;;5002853;28;20129;-84
2023/09/16 07:05:39;;;;;;;5.68;4.47;;;14.40;99.90;;;;;;5015544;28;20073;-81
2023/09/16 07:08:04;;;;;;;5.30;4.78;;;14.40;99.90;;;;;;5002865;28;20037;-83
2023/09/16 07:10:30;;;;;;;7.60;5.45;;;14.50;99.90;;;;;;5009479;28;20022;-82
2023/09/16 07:12:56;;;;;;;7.47;4.97;;;14.60;99.90;;;;;;5000439;28;20026;-82
2023/09/16 07:15:22;;;;;;;4.88;4.45;;;14.70;99.90;;;;;;5006916;28;20026;-87
2023/09/16 07:17:48;;;;;;;5.50;4.68;;;14.70;99.90;;;;;;5007183;28;20032;-83
2023/09/16 07:20:13;;;;;;;6.90;5.22;;;14.90;99.90;;;;;;5000928;28;20074;-81
2023/09/16 07:22:39;;;;;;;5.00;4.55;;;15.00;99.90;;;;;;5006525;28;20025;-82
2023/09/16 07:25:06;;;;;;;5.97;4.20;;;15.10;99.90;;;;;;5005655;28;20042;-81
2023/09/16 07:27:32;;;;;;;5.22;3.92;;;15.30;99.90;;;;;;5003862;28;20363;-81
2023/09/16 07:29:58;;;;;;;5.45;4.90;;;15.40;99.90;;;;;;4999287;28;20027;-83
2023/09/16 07:32:24;;;;;;;5.53;4.63;;;15.60;99.90;;;;;;4999289;28;20010;-82
2023/09/16 07:34:49;;;;;;;7.60;4.38;;;15.70;99.90;;;;;;5008064;28;20037;-82
2023/09/16 07:37:15;;;;;;;4.57;3.92;;;15.80;99.90;;;;;;5003543;28;20049;-84
2023/09/16 07:39:40;;;;;;;5.30;4.65;;;15.90;99.90;;;;;;5001302;28;20066;-81
2023/09/16 07:42:06;;;;;;;4.63;3.92;;;16.00;99.90;;;;;;5004131;28;20040;-81
2023/09/16 07:44:31;;;;;;;6.75;4.38;;;16.10;99.90;;;;;;5009200;28;20017;-82
2023/09/16 07:46:57;;;;;;;6.63;4.72;;;16.10;99.90;;;;;;5008433;28;20064;-84
2023/09/16 07:49:22;;;;;;;4.75;4.30;;;16.30;99.90;;;;;;5000994;28;20022;-81
2023/09/16 07:51:49;;;;;;;8.02;4.05;;;16.40;99.90;;;;;;5004742;28;20034;-82
2023/09/16 07:54:15;;;;;;;4.20;3.80;;;16.50;99.90;;;;;;5000295;28;20089;-82
2023/09/16 07:56:41;;;;;;;4.10;3.70;;;16.60;99.90;;;;;;5007071;28;20021;-81
2023/09/16 07:59:06;;;;;;;5.13;4.03;;;16.80;99.90;;;;;;5008731;28;20635;-81
2023/09/16 08:01:32;;;;;;;4.90;4.20;;;17.00;99.90;;;;;;4999152;28;20014;-84
2023/09/16 08:03:58;;;;;;;3.90;3.50;;;17.10;99.90;;;;;;5002931;28;20017;-81
2023/09/16 08:06:23;;;;;;;4.13;3.72;;;17.10;99.90;;;;;;5007317;28;20274;-83
2023/09/16 08:08:49;;;;;;;4.30;3.90;;;17.20;99.90;;;;;;5003726;28;20018;-83
2023/09/16 08:11:15;;;;;;;4.22;3.83;;;17.30;99.90;;;;;;4994621;28;20026;-81
2023/09/16 08:13:41;;;;;;;6.60;3.97;;;17.30;99.90;;;;;;5006597;28;20049;-83
2023/09/16 08:16:07;;;;;;;4.25;3.85;;;17.40;99.90;;;;;;5011230;28;20026;-80
2023/09/16 08:18:32;;;;;;;4.90;4.00;;;17.40;99.90;;;;;;5004236;28;20014;-81
2023/09/16 08:20:58;;;;;;;4.38;3.67;;;17.50;99.90;;;;;;4999698;28;20026;-83
2023/09/16 08:23:24;;;;;;;4.53;3.55;;;17.60;99.90;;;;;;5013150;28;20030;-80
2023/09/16 08:25:49;;;;;;;5.15;4.10;;;17.70;99.90;;;;;;5010636;28;20056;-82
2023/09/16 08:28:15;;;;;;;4.20;3.40;;;17.70;99.90;;;;;;4998520;28;20022;-82
2023/09/16 08:30:41;;;;;;;4.47;3.88;;;17.80;99.90;;;;;;4999945;28;20030;-82
2023/09/16 08:33:06;;;;;;;4.40;3.45;;;17.80;99.90;;;;;;5002750;28;20054;-81
2023/09/16 08:35:32;;;;;;;3.88;3.20;;;17.80;99.90;;;;;;5009537;28;20041;-82
2023/09/16 08:38:00;;;;;;;4.15;3.63;;;17.80;99.90;;;;;;5006805;28;20341;-85
2023/09/16 08:40:29;;;;;;;5.45;3.63;;;17.90;99.90;;;;;;5010355;28;20026;-83
2023/09/16 08:43:08;;;;;;;4.53;3.70;;;17.90;99.90;;;;;;5011156;28;20034;-82
2023/09/16 08:45:41;;;;;;;4.45;3.45;;;18.00;99.90;;;;;;5003745;28;20022;-83
2023/09/16 08:48:12;;;;;;;4.38;3.72;;;18.10;99.90;;;;;;5011150;28;20014;-82
2023/09/16 08:50:40;;;;;;;4.22;3.38;;;18.10;99.90;;;;;;5005606;28;20105;-83
2023/09/16 08:53:09;;;;;;;4.13;3.30;;;18.20;99.90;;;;;;5009918;28;20037;-83
2023/09/16 08:55:35;;;;;;;3.40;3.10;;;18.20;99.90;;;;;;5017030;28;20109;-81
2023/09/16 08:58:04;;;;;;;4.05;3.47;;;18.30;99.90;;;;;;5012148;28;20496;-81
2023/09/16 09:00:30;;;;;;;3.80;2.95;;;18.30;99.90;;;;;;5001231;28;20019;-82
2023/09/16 09:02:56;;;;;;;8.18;3.55;;;18.30;99.90;;;;;;4997355;28;20045;-81
2023/09/16 09:05:25;;;;;;;7.55;3.47;;;18.40;99.90;;;;;;4994346;28;20031;-86
2023/09/16 09:07:51;;;;;;;3.30;3.00;;;18.40;99.90;;;;;;5008136;28;20489;-84
2023/09/16 09:10:16;;;;;;;4.18;3.15;;;18.50;99.90;;;;;;5003476;28;20026;-83
2023/09/16 09:12:43;;;;;;;3.28;2.97;;;18.50;99.90;;;;;;5005510;28;20583;-82
2023/09/16 09:15:11;;;;;;;3.35;3.05;;;18.60;99.90;;;;;;5003342;28;20026;-84
2023/09/16 09:17:43;;;;;;;4.47;3.28;;;18.60;99.90;;;;;;5012524;28;20062;-81
2023/09/16 09:20:14;;;;;;;3.55;3.25;;;18.70;99.90;;;;;;5010472;28;20053;-80
2023/09/16 09:22:40;;;;;;;3.38;3.05;;;18.70;99.90;;;;;;5002745;28;20026;-81
2023/09/16 09:25:07;;;;;;;4.43;2.97;;;18.80;99.90;;;;;;5002289;28;20026;-81
2023/09/16 09:27:33;;;;;;;3.47;2.92;;;18.90;99.90;;;;;;5010496;28;20029;-83
2023/09/16 09:29:58;;;;;;;3.38;3.08;;;19.00;99.90;;;;;;5009360;28;20022;-81
2023/09/16 09:32:33;;;;;;;4.22;3.35;;;19.10;99.90;;;;;;5005457;28;20109;-85
2023/09/16 09:35:05;;;;;;;3.30;3.00;;;19.10;99.90;;;;;;5011212;28;20026;-81
2023/09/16 09:37:31;;;;;;;3.53;3.08;;;19.20;99.90;;;;;;5007069;28;20393;-83
2023/09/16 09:40:10;;;;;;;4.05;3.22;;;19.30;99.90;;;;;;5015594;28;20041;-80
2023/09/16 09:42:43;;;;;;;2.95;2.45;;;19.30;99.90;;;;;;5029160;28;20088;-82
2023/09/16 09:45:09;;;;;;;5.78;3.35;;;19.30;99.90;;;;;;5010312;28;20505;-81
2023/09/16 09:47:36;;;;;;;3.38;3.13;;;19.40;99.90;;;;;;5006197;28;20052;-84
2023/09/16 09:50:03;;;;;;;4.15;2.75;;;19.40;99.90;;;;;;4999669;28;20018;-81
2023/09/16 09:52:30;;;;;;;3.35;2.72;;;19.50;99.90;;;;;;5004449;28;20455;-80
2023/09/16 09:54:57;;;;;;;4.72;3.20;;;19.60;99.90;;;;;;5008301;28;20037;-85
2023/09/16 09:57:23;;;;;;;2.55;2.30;;;19.70;99.90;;;;;;5008853;28;20023;-82
2023/09/16 09:59:49;;;;;;;3.70;2.80;;;19.70;99.90;;;;;;5012038;28;20470;-81
2023/09/16 10:02:15;;;;;;;7.13;2.88;;;19.80;99.90;;;;;;4999318;28;20045;-82
2023/09/16 10:04:41;;;;;;;2.88;2.67;;;19.80;99.90;;;;;;5006432;28;20089;-81
2023/09/16 10:07:07;;;;;;;3.38;3.08;;;19.90;99.90;;;;;;5013616;28;20022;-83
2023/09/16 10:09:33;;;;;;;2.92;2.63;;;19.90;99.90;;;;;;5015330;28;20014;-82
2023/09/16 10:12:00;;;;;;;3.67;2.95;;;20.00;99.90;;;;;;5004704;28;20029;-82
2023/09/16 10:14:25;;;;;;;3.50;2.88;;;20.10;99.90;;;;;;5005075;28;20014;-83
2023/09/16 10:16:52;;;;;;;2.80;2.60;;;20.20;99.90;;;;;;5016076;28;20496;-82
2023/09/16 10:19:20;;;;;;;3.20;2.85;;;20.30;99.90;;;;;;5014552;28;20091;-81
2023/09/16 10:21:46;;;;;;;3.60;2.80;;;20.40;99.90;;;;;;5015113;28;20059;-83
2023/09/16 10:24:12;;;;;;;3.53;2.60;;;20.40;99.90;;;;;;5015126;28;20463;-83
2023/09/16 10:26:38;;;;;;;3.15;2.72;;;20.50;99.90;;;;;;5011581;28;20030;-85
2023/09/16 10:29:06;;;;;;;3.42;3.08;;;20.60;99.90;;;;;;5003313;28;20279;-83
2023/09/16 10:31:32;;;;;;;2.92;2.72;;;20.70;99.90;;;;;;4994233;28;20040;-83
2023/09/16 10:33:58;;;;;;;2.97;2.70;;;20.70;99.90;;;;;;4999532;28;20129;-81
2023/09/16 10:36:25;;;;;;;3.97;2.95;;;20.80;99.90;;;;;;5009414;28;20625;-83
2023/09/16 10:38:51;;;;;;;3.20;2.80;;;20.90;99.90;;;;;;5003326;28;20098;-84
2023/09/16 10:41:16;;;;;;;3.28;2.78;;;20.90;99.90;;;;;;5012472;28;20382;-82
2023/09/16 10:43:44;;;;;;;3.92;2.78;;;21.00;99.90;;;;;;5001111;28;20172;-85
2023/09/16 10:46:10;;;;;;;4.20;2.80;;;21.10;99.90;;;;;;5019624;28;20119;-81
2023/09/16 10:48:36;;;;;;;5.03;3.00;;;21.10;99.90;;;;;;5002461;28;20397;-81
2023/09/16 10:51:05;;;;;;;5.28;2.97;;;21.20;99.90;;;;;;5008573;28;20023;-81
2023/09/16 10:53:39;;;;;;;3.60;2.90;;;21.20;99.90;;;;;;5002074;28;20082;-81
2023/09/16 10:56:24;;;;;;;3.10;2.80;;;21.30;99.90;;;;;;5004770;28;20030;-82
2023/09/16 10:59:10;;;;;;;2.40;2.20;;;21.40;99.90;;;;;;5024130;28;20030;-84
2023/09/16 11:01:57;;;;;;;3.30;2.30;;;21.50;99.90;;;;;;5001129;28;20032;-83
2023/09/16 11:04:23;;;;;;;2.90;2.58;;;21.40;99.90;;;;;;5000273;28;20029;-81
2023/09/16 11:06:50;;;;;;;3.08;2.70;;;21.50;99.90;;;;;;5005376;28;20017;-81
2023/09/16 11:09:21;;;;;;;3.88;2.40;;;21.40;99.90;;;;;;5011530;28;20148;-84
2023/09/16 11:11:48;;;;;;;2.78;2.58;;;21.50;99.90;;;;;;5003888;28;20032;-83
2023/09/16 11:14:15;;;;;;;4.82;2.35;;;21.50;99.90;;;;;;5007905;28;20626;-81
2023/09/16 11:16:44;;;;;;;2.78;2.30;;;21.50;99.90;;;;;;5001842;28;20022;-84
2023/09/16 11:19:14;;;;;;;3.50;2.47;;;21.50;99.90;;;;;;5012448;28;20026;-83
2023/09/16 11:21:40;;;;;;;3.17;2.67;;;21.50;99.90;;;;;;5012137;28;20478;-81
2023/09/16 11:24:06;;;;;;;3.45;2.95;;;21.60;99.90;;;;;;5012368;28;20128;-81
2023/09/16 11:26:38;;;;;;;2.63;2.30;;;21.60;99.90;;;;;;5011606;28;20053;-82
2023/09/16 11:29:24;;;;;;;3.33;2.80;;;21.60;99.90;;;;;;5004943;28;20034;-80
2023/09/16 11:31:50;;;;;;;3.10;2.42;;;21.70;99.90;;;;;;5017644;28;20025;-82
2023/09/16 11:34:20;;;;;;;3.00;2.70;;;21.70;99.90;;;;;;4997613;28;20023;-79
2023/09/16 11:36:54;;;;;;;2.58;2.22;;;21.80;99.90;;;;;;5010382;28;20099;-80
2023/09/16 11:39:34;;;;;;;3.63;2.40;;;21.90;99.90;;;;;;5002004;28;20057;-82
2023/09/16 11:42:00;;;;;;;4.38;2.47;;;21.90;99.90;;;;;;5010997;28;20034;-83
2023/09/16 11:44:28;;;;;;;4.68;2.45;;;21.90;99.90;;;;;;5009822;28;20093;-81
2023/09/16 11:46:54;;;;;;;2.63;2.42;;;21.90;99.90;;;;;;5008144;28;20105;-84
2023/09/16 11:49:20;;;;;;;2.53;2.33;;;21.90;99.90;;;;;;5005059;28;20026;-83
2023/09/16 11:51:51;;;;;;;2.25;2.10;;;22.00;99.90;;;;;;5002164;28;20030;-85
2023/09/16 11:54:17;;;;;;;2.83;2.08;;;22.00;99.90;;;;;;5013305;28;20030;-83
2023/09/16 11:56:43;;;;;;;3.05;2.70;;;22.00;99.90;;;;;;5000163;28;20098;-82
2023/09/16 11:59:08;;;;;;;3.08;2.50;;;22.00;99.90;;;;;;5007543;28;20112;-83
2023/09/16 12:01:36;;;;;;;2.88;2.60;;;22.00;99.90;;;;;;5004671;28;20030;-85
2023/09/16 12:04:05;;;;;;;2.70;2.50;;;22.00;99.90;;;;;;5005445;28;20101;-83
2023/09/16 12:06:34;;;;;;;2.88;2.60;;;22.00;99.90;;;;;;5007523;28;20026;-82
2023/09/16 12:09:03;;;;;;;2.60;2.40;;;22.10;99.90;;;;;;5007926;28;20027;-81
2023/09/16 12:11:30;;;;;;;3.30;2.70;;;22.10;99.90;;;;;;5014858;28;20141;-84
2023/09/16 12:13:56;;;;;;;2.78;2.58;;;22.10;99.90;;;;;;5004649;28;20038;-83
2023/09/16 12:16:22;;;;;;;3.35;2.63;;;22.10;99.90;;;;;;5007953;28;20165;-84
2023/09/16 12:18:48;;;;;;;3.05;2.50;;;22.10;99.90;;;;;;5003631;28;20022;-84
2023/09/16 12:21:14;;;;;;;8.15;2.63;;;22.10;99.90;;;;;;5010851;28;20079;-81
2023/09/16 12:23:45;;;;;;;2.90;2.45;;;22.20;99.90;;;;;;4996138;28;20615;-82
2023/09/16 12:26:12;;;;;;;2.78;2.50;;;22.20;99.90;;;;;;4998565;28;20026;-84
2023/09/16 12:28:39;;;;;;;2.83;2.55;;;22.20;99.90;;;;;;5007760;28;20050;-81
2023/09/16 12:31:10;;;;;;;2.60;2.40;;;22.30;99.90;;;;;;5008523;28;20421;-84
2023/09/16 12:33:40;;;;;;;2.63;2.42;;;22.30;99.90;;;;;;4999281;28;20018;-84
2023/09/16 12:36:06;;;;;;;3.67;2.40;;;22.40;99.90;;;;;;5025441;28;20030;-81
2023/09/16 12:38:34;;;;;;;3.30;2.70;;;22.40;99.90;;;;;;5007975;28;20094;-82
2023/09/16 12:41:01;;;;;;;3.45;2.92;;;22.40;99.90;;;;;;5009054;28;20120;-82
2023/09/16 12:43:27;;;;;;;4.40;2.40;;;22.40;99.90;;;;;;5004776;28;20088;-82
2023/09/16 12:45:54;;;;;;;2.83;2.55;;;22.50;99.90;;;;;;5010511;28;20725;-83